sensor_id;sensor_type;location;lat;lon;timestamp;P1;durP1;ratioP1;P2;durP2;ratioP2
63738;SDS011;68816;45.558;10.070;2023-05-15T00:00:50;13.77;;;11.75;;
63738;SDS011;68816;45.558;10.070;2023-05-15T00:03:15;17.15;;;12.07;;
63738;SDS011;68816;45.558;10.070;2023-05-15T00:05:41;14.52;;;12.13;;
63738;SDS011;68816;45.558;10.070;2023-05-15T00:08:07;15.18;;;13.13;;
63738;SDS011;68816;45.558;10.070;2023-05-15T00:10:32;17.55;;;14.23;;
63738;SDS011;68816;45.558;10.070;2023-05-15T00:12:58;20.55;;;15.52;;
63738;SDS011;68816;45.558;10.070;2023-05-15T00:15:23;26.55;;;17.45;;
63738;SDS011;68816;45.558;10.070;2023-05-15T00:17:48;26.75;;;19.67;;
63738;SDS011;68816;45.558;10.070;2023-05-15T00:20:14;26.60;;;20.05;;
63738;SDS011;68816;45.558;10.070;2023-05-15T00:22:39;28.27;;;19.88;;
63738;SDS011;68816;45.558;10.070;2023-05-15T00:25:05;27.70;;;20.70;;
63738;SDS011;68816;45.558;10.070;2023-05-15T00:27:31;30.92;;;22.23;;
63738;SDS011;68816;45.558;10.070;2023-05-15T00:29:57;26.77;;;20.55;;
63738;SDS011;68816;45.558;10.070;2023-05-15T00:32:22;30.05;;;21.67;;
63738;SDS011;68816;45.558;10.070;2023-05-15T00:34:48;27.42;;;20.50;;
63738;SDS011;68816;45.558;10.070;2023-05-15T00:37:13;28.58;;;20.77;;
63738;SDS011;68816;45.558;10.070;2023-05-15T00:39:39;29.27;;;21.73;;
63738;SDS011;68816;45.558;10.070;2023-05-15T00:42:04;30.25;;;20.77;;
63738;SDS011;68816;45.558;10.070;2023-05-15T00:44:31;26.75;;;21.17;;
63738;SDS011;68816;45.558;10.070;2023-05-15T00:46:58;26.73;;;20.25;;
63738;SDS011;68816;45.558;10.070;2023-05-15T00:49:25;25.38;;;18.92;;
63738;SDS011;68816;45.558;10.070;2023-05-15T00:51:53;26.08;;;20.20;;
63738;SDS011;68816;45.558;10.070;2023-05-15T00:54:20;23.73;;;19.05;;
63738;SDS011;68816;45.558;10.070;2023-05-15T00:56:46;26.35;;;19.75;;
63738;SDS011;68816;45.558;10.070;2023-05-15T00:59:13;26.20;;;20.05;;
63738;SDS011;68816;45.558;10.070;2023-05-15T01:01:40;24.67;;;19.67;;
63738;SDS011;68816;45.558;10.070;2023-05-15T01:04:05;24.05;;;19.55;;
63738;SDS011;68816;45.558;10.070;2023-05-15T01:06:31;23.60;;;18.90;;
63738;SDS011;68816;45.558;10.070;2023-05-15T01:08:58;26.00;;;20.17;;
63738;SDS011;68816;45.558;10.070;2023-05-15T01:11:26;27.23;;;20.83;;
63738;SDS011;68816;45.558;10.070;2023-05-15T01:14:01;27.08;;;21.15;;
63738;SDS011;68816;45.558;10.070;2023-05-15T01:16:28;30.08;;;20.73;;
63738;SDS011;68816;45.558;10.070;2023-05-15T01:18:54;25.48;;;20.15;;
63738;SDS011;68816;45.558;10.070;2023-05-15T01:31:44;29.73;;;21.50;;
63738;SDS011;68816;45.558;10.070;2023-05-15T01:34:21;27.95;;;19.80;;
63738;SDS011;68816;45.558;10.070;2023-05-15T01:36:55;23.37;;;18.87;;
63738;SDS011;68816;45.558;10.070;2023-05-15T01:39:22;26.60;;;19.38;;
63738;SDS011;68816;45.558;10.070;2023-05-15T01:44:27;27.02;;;18.45;;
63738;SDS011;68816;45.558;10.070;2023-05-15T01:46:55;23.02;;;18.50;;
63738;SDS011;68816;45.558;10.070;2023-05-15T01:49:25;25.73;;;17.65;;
63738;SDS011;68816;45.558;10.070;2023-05-15T01:51:56;23.25;;;17.77;;
63738;SDS011;68816;45.558;10.070;2023-05-15T01:54:26;23.00;;;17.90;;
63738;SDS011;68816;45.558;10.070;2023-05-15T01:56:53;22.88;;;17.75;;
63738;SDS011;68816;45.558;10.070;2023-05-15T01:59:21;24.67;;;17.58;;
63738;SDS011;68816;45.558;10.070;2023-05-15T02:01:48;22.30;;;17.08;;
63738;SDS011;68816;45.558;10.070;2023-05-15T02:04:15;24.00;;;17.90;;
63738;SDS011;68816;45.558;10.070;2023-05-15T02:06:42;24.27;;;16.90;;
63738;SDS011;68816;45.558;10.070;2023-05-15T02:09:08;25.00;;;17.00;;
63738;SDS011;68816;45.558;10.070;2023-05-15T02:11:35;20.83;;;16.48;;
63738;SDS011;68816;45.558;10.070;2023-05-15T02:14:01;19.52;;;15.23;;
63738;SDS011;68816;45.558;10.070;2023-05-15T02:16:28;17.05;;;13.20;;
63738;SDS011;68816;45.558;10.070;2023-05-15T02:18:54;16.25;;;12.50;;
63738;SDS011;68816;45.558;10.070;2023-05-15T02:21:20;13.65;;;11.68;;
63738;SDS011;68816;45.558;10.070;2023-05-15T02:23:45;15.60;;;11.60;;
63738;SDS011;68816;45.558;10.070;2023-05-15T02:26:13;12.43;;;9.63;;
63738;SDS011;68816;45.558;10.070;2023-05-15T02:34:31;12.40;;;9.93;;
63738;SDS011;68816;45.558;10.070;2023-05-15T02:37:03;14.68;;;10.25;;
63738;SDS011;68816;45.558;10.070;2023-05-15T02:39:34;14.20;;;10.05;;
63738;SDS011;68816;45.558;10.070;2023-05-15T02:42:02;12.45;;;9.80;;
63738;SDS011;68816;45.558;10.070;2023-05-15T02:44:29;14.73;;;10.68;;
63738;SDS011;68816;45.558;10.070;2023-05-15T02:46:56;15.57;;;10.25;;
63738;SDS011;68816;45.558;10.070;2023-05-15T02:49:22;13.82;;;9.85;;
63738;SDS011;68816;45.558;10.070;2023-05-15T02:51:48;13.05;;;10.45;;
63738;SDS011;68816;45.558;10.070;2023-05-15T02:54:15;11.90;;;9.95;;
63738;SDS011;68816;45.558;10.070;2023-05-15T02:56:40;15.63;;;10.45;;
63738;SDS011;68816;45.558;10.070;2023-05-15T02:59:06;11.93;;;9.45;;
63738;SDS011;68816;45.558;10.070;2023-05-15T03:01:31;12.27;;;9.98;;
63738;SDS011;68816;45.558;10.070;2023-05-15T03:03:57;11.73;;;9.57;;
63738;SDS011;68816;45.558;10.070;2023-05-15T03:06:22;13.48;;;9.35;;
63738;SDS011;68816;45.558;10.070;2023-05-15T03:08:48;12.43;;;8.93;;
63738;SDS011;68816;45.558;10.070;2023-05-15T03:11:13;13.25;;;9.20;;
63738;SDS011;68816;45.558;10.070;2023-05-15T03:13:39;11.63;;;8.65;;
63738;SDS011;68816;45.558;10.070;2023-05-15T03:16:04;11.02;;;9.15;;
63738;SDS011;68816;45.558;10.070;2023-05-15T03:18:30;10.85;;;8.40;;
63738;SDS011;68816;45.558;10.070;2023-05-15T03:20:55;12.75;;;8.93;;
63738;SDS011;68816;45.558;10.070;2023-05-15T03:23:21;9.35;;;7.82;;
63738;SDS011;68816;45.558;10.070;2023-05-15T03:25:46;11.80;;;8.55;;
63738;SDS011;68816;45.558;10.070;2023-05-15T03:28:11;11.40;;;8.90;;
63738;SDS011;68816;45.558;10.070;2023-05-15T03:30:37;12.48;;;8.82;;
63738;SDS011;68816;45.558;10.070;2023-05-15T03:33:02;11.07;;;8.43;;
63738;SDS011;68816;45.558;10.070;2023-05-15T03:35:28;12.15;;;8.93;;
63738;SDS011;68816;45.558;10.070;2023-05-15T03:37:54;14.00;;;9.60;;
63738;SDS011;68816;45.558;10.070;2023-05-15T03:40:20;11.20;;;8.90;;
63738;SDS011;68816;45.558;10.070;2023-05-15T03:42:45;13.00;;;9.30;;
63738;SDS011;68816;45.558;10.070;2023-05-15T03:45:11;13.07;;;9.05;;
63738;SDS011;68816;45.558;10.070;2023-05-15T03:47:36;13.00;;;9.98;;
63738;SDS011;68816;45.558;10.070;2023-05-15T03:50:02;12.93;;;9.85;;
63738;SDS011;68816;45.558;10.070;2023-05-15T03:52:28;15.75;;;11.07;;
63738;SDS011;68816;45.558;10.070;2023-05-15T03:54:53;17.80;;;11.80;;
63738;SDS011;68816;45.558;10.070;2023-05-15T03:57:18;19.80;;;12.30;;
63738;SDS011;68816;45.558;10.070;2023-05-15T03:59:44;18.08;;;13.02;;
63738;SDS011;68816;45.558;10.070;2023-05-15T04:02:09;24.70;;;14.82;;
63738;SDS011;68816;45.558;10.070;2023-05-15T04:04:35;94.55;;;18.40;;
63738;SDS011;68816;45.558;10.070;2023-05-15T04:07:01;40.65;;;17.73;;
63738;SDS011;68816;45.558;10.070;2023-05-15T04:09:27;34.88;;;17.52;;
63738;SDS011;68816;45.558;10.070;2023-05-15T04:11:53;25.80;;;17.02;;
63738;SDS011;68816;45.558;10.070;2023-05-15T04:14:19;32.90;;;16.80;;
63738;SDS011;68816;45.558;10.070;2023-05-15T04:16:44;30.30;;;17.73;;
63738;SDS011;68816;45.558;10.070;2023-05-15T04:19:10;27.00;;;16.85;;
63738;SDS011;68816;45.558;10.070;2023-05-15T04:21:35;26.00;;;17.05;;
63738;SDS011;68816;45.558;10.070;2023-05-15T04:24:01;24.90;;;16.63;;
63738;SDS011;68816;45.558;10.070;2023-05-15T04:26:26;29.20;;;17.10;;
63738;SDS011;68816;45.558;10.070;2023-05-15T04:28:52;22.88;;;15.85;;
63738;SDS011;68816;45.558;10.070;2023-05-15T04:31:17;28.08;;;18.33;;
63738;SDS011;68816;45.558;10.070;2023-05-15T04:33:42;25.73;;;16.90;;
63738;SDS011;68816;45.558;10.070;2023-05-15T04:36:08;25.13;;;17.05;;
63738;SDS011;68816;45.558;10.070;2023-05-15T04:38:34;26.38;;;18.67;;
63738;SDS011;68816;45.558;10.070;2023-05-15T04:40:59;27.85;;;18.17;;
63738;SDS011;68816;45.558;10.070;2023-05-15T04:43:25;25.35;;;17.40;;
63738;SDS011;68816;45.558;10.070;2023-05-15T04:45:50;24.25;;;17.52;;
63738;SDS011;68816;45.558;10.070;2023-05-15T04:48:16;25.58;;;17.17;;
63738;SDS011;68816;45.558;10.070;2023-05-15T04:50:43;25.45;;;17.17;;
63738;SDS011;68816;45.558;10.070;2023-05-15T04:53:09;25.02;;;17.98;;
63738;SDS011;68816;45.558;10.070;2023-05-15T04:55:35;26.75;;;18.65;;
63738;SDS011;68816;45.558;10.070;2023-05-15T04:58:04;23.35;;;17.83;;
63738;SDS011;68816;45.558;10.070;2023-05-15T05:00:29;28.15;;;18.70;;
63738;SDS011;68816;45.558;10.070;2023-05-15T05:02:55;25.88;;;17.42;;
63738;SDS011;68816;45.558;10.070;2023-05-15T05:05:20;28.30;;;18.95;;
63738;SDS011;68816;45.558;10.070;2023-05-15T05:07:46;27.42;;;19.02;;
63738;SDS011;68816;45.558;10.070;2023-05-15T05:10:12;28.27;;;19.88;;
63738;SDS011;68816;45.558;10.070;2023-05-15T05:12:38;32.67;;;19.73;;
63738;SDS011;68816;45.558;10.070;2023-05-15T05:15:03;28.33;;;19.73;;
63738;SDS011;68816;45.558;10.070;2023-05-15T05:17:29;27.17;;;20.08;;
63738;SDS011;68816;45.558;10.070;2023-05-15T05:19:55;25.38;;;15.73;;
63738;SDS011;68816;45.558;10.070;2023-05-15T05:22:21;21.65;;;15.65;;
63738;SDS011;68816;45.558;10.070;2023-05-15T05:24:47;24.63;;;16.65;;
63738;SDS011;68816;45.558;10.070;2023-05-15T05:27:13;23.80;;;15.98;;
63738;SDS011;68816;45.558;10.070;2023-05-15T05:29:38;23.65;;;17.17;;
63738;SDS011;68816;45.558;10.070;2023-05-15T05:32:04;21.38;;;14.98;;
63738;SDS011;68816;45.558;10.070;2023-05-15T05:34:34;17.40;;;12.80;;
63738;SDS011;68816;45.558;10.070;2023-05-15T05:36:59;19.08;;;13.02;;
63738;SDS011;68816;45.558;10.070;2023-05-15T05:39:26;18.95;;;13.27;;
63738;SDS011;68816;45.558;10.070;2023-05-15T05:41:57;19.95;;;14.30;;
63738;SDS011;68816;45.558;10.070;2023-05-15T05:44:43;17.77;;;13.32;;
63738;SDS011;68816;45.558;10.070;2023-05-15T05:47:08;21.02;;;14.90;;
63738;SDS011;68816;45.558;10.070;2023-05-15T05:49:33;21.25;;;14.93;;
63738;SDS011;68816;45.558;10.070;2023-05-15T05:52:05;20.38;;;14.88;;
63738;SDS011;68816;45.558;10.070;2023-05-15T05:54:33;26.48;;;16.02;;
63738;SDS011;68816;45.558;10.070;2023-05-15T05:56:58;25.55;;;17.10;;
63738;SDS011;68816;45.558;10.070;2023-05-15T05:59:24;24.20;;;16.83;;
63738;SDS011;68816;45.558;10.070;2023-05-15T06:01:50;25.48;;;16.20;;
63738;SDS011;68816;45.558;10.070;2023-05-15T06:04:17;21.23;;;14.82;;
63738;SDS011;68816;45.558;10.070;2023-05-15T06:06:43;28.27;;;15.00;;
63738;SDS011;68816;45.558;10.070;2023-05-15T06:09:09;18.17;;;13.57;;
63738;SDS011;68816;45.558;10.070;2023-05-15T06:11:34;16.08;;;11.93;;
63738;SDS011;68816;45.558;10.070;2023-05-15T06:14:00;16.08;;;10.45;;
63738;SDS011;68816;45.558;10.070;2023-05-15T06:16:25;11.82;;;8.75;;
63738;SDS011;68816;45.558;10.070;2023-05-15T06:18:51;9.82;;;7.63;;
63738;SDS011;68816;45.558;10.070;2023-05-15T06:21:17;5.95;;;4.20;;
63738;SDS011;68816;45.558;10.070;2023-05-15T06:23:42;7.43;;;3.63;;
63738;SDS011;68816;45.558;10.070;2023-05-15T06:26:08;4.85;;;3.20;;
63738;SDS011;68816;45.558;10.070;2023-05-15T06:28:33;6.10;;;3.30;;
63738;SDS011;68816;45.558;10.070;2023-05-15T06:30:59;8.13;;;4.88;;
63738;SDS011;68816;45.558;10.070;2023-05-15T06:33:24;10.48;;;7.10;;
63738;SDS011;68816;45.558;10.070;2023-05-15T06:35:50;8.75;;;6.65;;
63738;SDS011;68816;45.558;10.070;2023-05-15T06:38:16;9.13;;;6.25;;
63738;SDS011;68816;45.558;10.070;2023-05-15T06:40:41;7.30;;;5.63;;
63738;SDS011;68816;45.558;10.070;2023-05-15T06:43:07;9.93;;;4.65;;
63738;SDS011;68816;45.558;10.070;2023-05-15T06:45:32;7.60;;;4.70;;
63738;SDS011;68816;45.558;10.070;2023-05-15T06:47:58;7.90;;;4.65;;
63738;SDS011;68816;45.558;10.070;2023-05-15T06:50:23;7.47;;;4.38;;
63738;SDS011;68816;45.558;10.070;2023-05-15T06:52:51;6.40;;;3.88;;
63738;SDS011;68816;45.558;10.070;2023-05-15T06:55:16;6.72;;;4.20;;
63738;SDS011;68816;45.558;10.070;2023-05-15T06:57:42;4.90;;;3.90;;
63738;SDS011;68816;45.558;10.070;2023-05-15T07:00:07;6.45;;;4.00;;
63738;SDS011;68816;45.558;10.070;2023-05-15T07:02:33;5.93;;;3.30;;
63738;SDS011;68816;45.558;10.070;2023-05-15T07:04:59;4.93;;;2.92;;
63738;SDS011;68816;45.558;10.070;2023-05-15T07:07:24;6.18;;;3.25;;
63738;SDS011;68816;45.558;10.070;2023-05-15T07:09:50;4.50;;;2.75;;
63738;SDS011;68816;45.558;10.070;2023-05-15T07:12:15;5.38;;;3.40;;
63738;SDS011;68816;45.558;10.070;2023-05-15T07:14:41;5.90;;;2.95;;
63738;SDS011;68816;45.558;10.070;2023-05-15T07:17:06;8.07;;;4.03;;
63738;SDS011;68816;45.558;10.070;2023-05-15T07:19:32;6.95;;;3.25;;
63738;SDS011;68816;45.558;10.070;2023-05-15T07:21:57;5.00;;;2.80;;
63738;SDS011;68816;45.558;10.070;2023-05-15T07:24:23;6.90;;;3.70;;
63738;SDS011;68816;45.558;10.070;2023-05-15T07:26:48;8.93;;;3.40;;
63738;SDS011;68816;45.558;10.070;2023-05-15T07:29:13;9.40;;;4.28;;
63738;SDS011;68816;45.558;10.070;2023-05-15T07:31:39;8.45;;;4.57;;
63738;SDS011;68816;45.558;10.070;2023-05-15T07:34:05;7.07;;;4.80;;
63738;SDS011;68816;45.558;10.070;2023-05-15T07:36:31;7.40;;;4.70;;
63738;SDS011;68816;45.558;10.070;2023-05-15T07:38:57;9.07;;;4.82;;
63738;SDS011;68816;45.558;10.070;2023-05-15T07:41:22;12.82;;;4.88;;
63738;SDS011;68816;45.558;10.070;2023-05-15T07:43:48;6.35;;;4.63;;
63738;SDS011;68816;45.558;10.070;2023-05-15T07:46:13;5.00;;;4.28;;
63738;SDS011;68816;45.558;10.070;2023-05-15T07:48:39;6.45;;;4.20;;
63738;SDS011;68816;45.558;10.070;2023-05-15T07:51:04;5.53;;;3.92;;
63738;SDS011;68816;45.558;10.070;2023-05-15T07:53:29;6.47;;;4.95;;
63738;SDS011;68816;45.558;10.070;2023-05-15T07:55:57;6.32;;;4.50;;
63738;SDS011;68816;45.558;10.070;2023-05-15T07:58:22;7.32;;;5.03;;
63738;SDS011;68816;45.558;10.070;2023-05-15T08:00:48;6.25;;;4.95;;
63738;SDS011;68816;45.558;10.070;2023-05-15T08:03:13;7.20;;;5.75;;
63738;SDS011;68816;45.558;10.070;2023-05-15T08:05:39;7.93;;;6.22;;
63738;SDS011;68816;45.558;10.070;2023-05-15T08:08:05;9.50;;;6.90;;
63738;SDS011;68816;45.558;10.070;2023-05-15T08:10:32;9.93;;;7.90;;
63738;SDS011;68816;45.558;10.070;2023-05-15T08:13:01;11.05;;;9.70;;
63738;SDS011;68816;45.558;10.070;2023-05-15T08:15:27;12.52;;;9.07;;
63738;SDS011;68816;45.558;10.070;2023-05-15T08:17:53;11.55;;;9.85;;
63738;SDS011;68816;45.558;10.070;2023-05-15T08:20:18;11.43;;;8.95;;
63738;SDS011;68816;45.558;10.070;2023-05-15T08:22:44;11.27;;;7.80;;
63738;SDS011;68816;45.558;10.070;2023-05-15T08:25:09;7.97;;;6.25;;
63738;SDS011;68816;45.558;10.070;2023-05-15T08:27:35;7.25;;;6.30;;
63738;SDS011;68816;45.558;10.070;2023-05-15T08:30:01;7.35;;;5.97;;
63738;SDS011;68816;45.558;10.070;2023-05-15T08:32:26;7.25;;;5.88;;
63738;SDS011;68816;45.558;10.070;2023-05-15T08:34:52;6.85;;;5.65;;
63738;SDS011;68816;45.558;10.070;2023-05-15T08:37:17;4.93;;;4.43;;
63738;SDS011;68816;45.558;10.070;2023-05-15T08:39:42;5.63;;;4.20;;
63738;SDS011;68816;45.558;10.070;2023-05-15T08:44:48;4.97;;;4.45;;
63738;SDS011;68816;45.558;10.070;2023-05-15T08:47:14;6.25;;;4.75;;
63738;SDS011;68816;45.558;10.070;2023-05-15T08:52:20;4.95;;;3.70;;
63738;SDS011;68816;45.558;10.070;2023-05-15T08:54:47;6.07;;;4.57;;
63738;SDS011;68816;45.558;10.070;2023-05-15T08:57:13;4.53;;;4.00;;
63738;SDS011;68816;45.558;10.070;2023-05-15T08:59:39;6.22;;;4.78;;
63738;SDS011;68816;45.558;10.070;2023-05-15T09:02:05;7.07;;;4.50;;
63738;SDS011;68816;45.558;10.070;2023-05-15T09:04:30;5.32;;;4.22;;
63738;SDS011;68816;45.558;10.070;2023-05-15T09:06:57;6.30;;;4.32;;
63738;SDS011;68816;45.558;10.070;2023-05-15T09:09:24;7.97;;;5.25;;
63738;SDS011;68816;45.558;10.070;2023-05-15T09:11:51;5.65;;;4.80;;
63738;SDS011;68816;45.558;10.070;2023-05-15T09:14:18;7.57;;;4.45;;
63738;SDS011;68816;45.558;10.070;2023-05-15T09:16:43;6.25;;;4.30;;
63738;SDS011;68816;45.558;10.070;2023-05-15T09:19:10;4.72;;;3.83;;
63738;SDS011;68816;45.558;10.070;2023-05-15T09:21:38;4.82;;;3.60;;
63738;SDS011;68816;45.558;10.070;2023-05-15T09:24:19;5.20;;;4.05;;
63738;SDS011;68816;45.558;10.070;2023-05-15T09:29:34;6.25;;;4.20;;
63738;SDS011;68816;45.558;10.070;2023-05-15T09:32:10;5.97;;;4.60;;
63738;SDS011;68816;45.558;10.070;2023-05-15T09:34:40;6.05;;;5.10;;
63738;SDS011;68816;45.558;10.070;2023-05-15T09:37:11;6.50;;;4.68;;
63738;SDS011;68816;45.558;10.070;2023-05-15T09:39:51;7.15;;;5.20;;
63738;SDS011;68816;45.558;10.070;2023-05-15T09:42:17;5.68;;;4.70;;
63738;SDS011;68816;45.558;10.070;2023-05-15T09:44:43;5.65;;;4.43;;
63738;SDS011;68816;45.558;10.070;2023-05-15T09:47:09;6.38;;;4.60;;
63738;SDS011;68816;45.558;10.070;2023-05-15T09:49:36;7.20;;;4.63;;
63738;SDS011;68816;45.558;10.070;2023-05-15T09:52:02;9.20;;;4.75;;
63738;SDS011;68816;45.558;10.070;2023-05-15T09:54:32;6.03;;;4.50;;
63738;SDS011;68816;45.558;10.070;2023-05-15T09:57:12;4.90;;;4.35;;
63738;SDS011;68816;45.558;10.070;2023-05-15T09:59:45;6.28;;;4.40;;
63738;SDS011;68816;45.558;10.070;2023-05-15T10:04:56;7.25;;;4.70;;
63738;SDS011;68816;45.558;10.070;2023-05-15T10:09:57;7.03;;;4.70;;
63738;SDS011;68816;45.558;10.070;2023-05-15T10:12:23;7.00;;;4.68;;
63738;SDS011;68816;45.558;10.070;2023-05-15T10:14:50;6.78;;;5.13;;
63738;SDS011;68816;45.558;10.070;2023-05-15T10:17:20;5.78;;;4.28;;
63738;SDS011;68816;45.558;10.070;2023-05-15T10:19:46;5.57;;;4.28;;
63738;SDS011;68816;45.558;10.070;2023-05-15T10:22:14;7.00;;;4.40;;
63738;SDS011;68816;45.558;10.070;2023-05-15T10:24:45;6.13;;;4.60;;
63738;SDS011;68816;45.558;10.070;2023-05-15T10:27:12;5.10;;;4.65;;
63738;SDS011;68816;45.558;10.070;2023-05-15T10:29:39;6.32;;;4.68;;
63738;SDS011;68816;45.558;10.070;2023-05-15T10:32:05;6.65;;;4.93;;
63738;SDS011;68816;45.558;10.070;2023-05-15T10:34:31;6.63;;;5.47;;
63738;SDS011;68816;45.558;10.070;2023-05-15T10:36:58;6.53;;;5.40;;
63738;SDS011;68816;45.558;10.070;2023-05-15T10:39:24;8.27;;;5.53;;
63738;SDS011;68816;45.558;10.070;2023-05-15T10:41:51;6.05;;;5.45;;
63738;SDS011;68816;45.558;10.070;2023-05-15T10:44:18;6.20;;;4.93;;
63738;SDS011;68816;45.558;10.070;2023-05-15T10:46:44;4.53;;;4.13;;
63738;SDS011;68816;45.558;10.070;2023-05-15T10:49:11;5.38;;;4.88;;
63738;SDS011;68816;45.558;10.070;2023-05-15T10:51:37;5.93;;;5.43;;
63738;SDS011;68816;45.558;10.070;2023-05-15T10:54:04;6.70;;;5.30;;
63738;SDS011;68816;45.558;10.070;2023-05-15T10:56:30;5.40;;;4.90;;
63738;SDS011;68816;45.558;10.070;2023-05-15T10:58:56;5.18;;;4.68;;
63738;SDS011;68816;45.558;10.070;2023-05-15T11:01:25;5.03;;;4.53;;
63738;SDS011;68816;45.558;10.070;2023-05-15T11:04:11;5.47;;;4.97;;
63738;SDS011;68816;45.558;10.070;2023-05-15T11:06:43;6.88;;;5.55;;
63738;SDS011;68816;45.558;10.070;2023-05-15T11:14:19;6.05;;;5.50;;
63738;SDS011;68816;45.558;10.070;2023-05-15T11:19:30;6.18;;;5.55;;
63738;SDS011;68816;45.558;10.070;2023-05-15T11:21:59;6.65;;;5.70;;
63738;SDS011;68816;45.558;10.070;2023-05-15T11:25:01;7.20;;;5.88;;
63738;SDS011;68816;45.558;10.070;2023-05-15T11:27:28;7.18;;;6.47;;
63738;SDS011;68816;45.558;10.070;2023-05-15T11:32:42;7.85;;;7.15;;
63738;SDS011;68816;45.558;10.070;2023-05-15T11:35:28;8.48;;;7.68;;
63738;SDS011;68816;45.558;10.070;2023-05-15T11:40:50;8.50;;;7.80;;
63738;SDS011;68816;45.558;10.070;2023-05-15T11:43:27;8.90;;;8.10;;
63738;SDS011;68816;45.558;10.070;2023-05-15T11:48:30;8.52;;;7.35;;
63738;SDS011;68816;45.558;10.070;2023-05-15T11:50:59;8.45;;;7.68;;
63738;SDS011;68816;45.558;10.070;2023-05-15T11:53:27;8.32;;;7.53;;
63738;SDS011;68816;45.558;10.070;2023-05-15T11:56:26;8.63;;;7.78;;
63738;SDS011;68816;45.558;10.070;2023-05-15T11:59:33;9.40;;;8.20;;
63738;SDS011;68816;45.558;10.070;2023-05-15T12:01:59;9.30;;;8.50;;
63738;SDS011;68816;45.558;10.070;2023-05-15T12:05:05;9.55;;;8.65;;
63738;SDS011;68816;45.558;10.070;2023-05-15T12:07:52;11.38;;;9.18;;
63738;SDS011;68816;45.558;10.070;2023-05-15T12:10:17;10.55;;;9.52;;
63738;SDS011;68816;45.558;10.070;2023-05-15T12:12:45;8.93;;;8.13;;
63738;SDS011;68816;45.558;10.070;2023-05-15T12:15:12;32.90;;;9.23;;
63738;SDS011;68816;45.558;10.070;2023-05-15T12:17:42;9.43;;;7.80;;
63738;SDS011;68816;45.558;10.070;2023-05-15T12:20:35;8.65;;;7.85;;
63738;SDS011;68816;45.558;10.070;2023-05-15T12:23:26;9.70;;;7.60;;
63738;SDS011;68816;45.558;10.070;2023-05-15T12:26:01;8.40;;;7.60;;
63738;SDS011;68816;45.558;10.070;2023-05-15T12:28:34;8.68;;;7.78;;
63738;SDS011;68816;45.558;10.070;2023-05-15T12:31:00;9.02;;;8.05;;
63738;SDS011;68816;45.558;10.070;2023-05-15T12:33:28;8.68;;;7.57;;
63738;SDS011;68816;45.558;10.070;2023-05-15T12:35:54;8.95;;;8.15;;
63738;SDS011;68816;45.558;10.070;2023-05-15T12:38:21;14.73;;;8.38;;
63738;SDS011;68816;45.558;10.070;2023-05-15T12:40:50;8.00;;;7.20;;
63738;SDS011;68816;45.558;10.070;2023-05-15T12:43:17;8.98;;;8.10;;
63738;SDS011;68816;45.558;10.070;2023-05-15T12:45:43;9.18;;;7.80;;
63738;SDS011;68816;45.558;10.070;2023-05-15T12:48:12;9.73;;;8.57;;
63738;SDS011;68816;45.558;10.070;2023-05-15T12:50:42;9.02;;;8.10;;
63738;SDS011;68816;45.558;10.070;2023-05-15T12:53:09;9.45;;;8.55;;
63738;SDS011;68816;45.558;10.070;2023-05-15T12:55:40;9.65;;;8.35;;
63738;SDS011;68816;45.558;10.070;2023-05-15T12:58:08;9.60;;;8.57;;
63738;SDS011;68816;45.558;10.070;2023-05-15T13:00:36;8.50;;;7.32;;
63738;SDS011;68816;45.558;10.070;2023-05-15T13:03:03;8.35;;;7.57;;
63738;SDS011;68816;45.558;10.070;2023-05-15T13:05:31;7.22;;;6.28;;
63738;SDS011;68816;45.558;10.070;2023-05-15T13:08:01;7.13;;;6.43;;
63738;SDS011;68816;45.558;10.070;2023-05-15T13:10:30;7.65;;;6.95;;
63738;SDS011;68816;45.558;10.070;2023-05-15T13:12:56;8.27;;;6.13;;
63738;SDS011;68816;45.558;10.070;2023-05-15T13:15:27;8.35;;;7.40;;
63738;SDS011;68816;45.558;10.070;2023-05-15T13:17:57;7.95;;;7.20;;
63738;SDS011;68816;45.558;10.070;2023-05-15T13:20:28;8.68;;;7.78;;
63738;SDS011;68816;45.558;10.070;2023-05-15T13:23:28;8.10;;;6.93;;
63738;SDS011;68816;45.558;10.070;2023-05-15T13:34:14;5.15;;;3.33;;
63738;SDS011;68816;45.558;10.070;2023-05-15T13:36:43;3.47;;;2.78;;
63738;SDS011;68816;45.558;10.070;2023-05-15T13:39:12;6.35;;;4.10;;
63738;SDS011;68816;45.558;10.070;2023-05-15T13:41:41;9.15;;;3.83;;
63738;SDS011;68816;45.558;10.070;2023-05-15T13:44:11;7.00;;;4.65;;
63738;SDS011;68816;45.558;10.070;2023-05-15T13:46:39;4.63;;;4.13;;
63738;SDS011;68816;45.558;10.070;2023-05-15T13:49:04;3.40;;;2.53;;
63738;SDS011;68816;45.558;10.070;2023-05-15T13:51:30;3.22;;;2.90;;
63738;SDS011;68816;45.558;10.070;2023-05-15T13:53:55;4.05;;;3.30;;
63738;SDS011;68816;45.558;10.070;2023-05-15T13:56:21;3.67;;;3.05;;
63738;SDS011;68816;45.558;10.070;2023-05-15T13:58:47;5.53;;;3.00;;
63738;SDS011;68816;45.558;10.070;2023-05-15T14:01:14;4.10;;;3.55;;
63738;SDS011;68816;45.558;10.070;2023-05-15T14:03:40;5.47;;;3.13;;
63738;SDS011;68816;45.558;10.070;2023-05-15T14:08:42;6.13;;;4.60;;
63738;SDS011;68816;45.558;10.070;2023-05-15T14:11:07;4.50;;;4.10;;
63738;SDS011;68816;45.558;10.070;2023-05-15T14:13:33;5.25;;;4.38;;
63738;SDS011;68816;45.558;10.070;2023-05-15T14:16:01;4.03;;;3.47;;
63738;SDS011;68816;45.558;10.070;2023-05-15T14:18:30;4.32;;;3.60;;
63738;SDS011;68816;45.558;10.070;2023-05-15T14:20:56;4.00;;;3.10;;
63738;SDS011;68816;45.558;10.070;2023-05-15T14:23:39;3.30;;;3.00;;
63738;SDS011;68816;45.558;10.070;2023-05-15T14:26:09;3.10;;;2.80;;
63738;SDS011;68816;45.558;10.070;2023-05-15T14:28:50;3.60;;;2.63;;
63738;SDS011;68816;45.558;10.070;2023-05-15T14:31:16;3.28;;;2.97;;
63738;SDS011;68816;45.558;10.070;2023-05-15T14:41:30;4.78;;;2.10;;
63738;SDS011;68816;45.558;10.070;2023-05-15T14:47:13;5.03;;;3.03;;
63738;SDS011;68816;45.558;10.070;2023-05-15T14:49:40;4.97;;;4.10;;
63738;SDS011;68816;45.558;10.070;2023-05-15T14:52:10;15.85;;;3.40;;
63738;SDS011;68816;45.558;10.070;2023-05-15T14:54:40;3.40;;;3.10;;
63738;SDS011;68816;45.558;10.070;2023-05-15T14:57:09;5.80;;;3.13;;
63738;SDS011;68816;45.558;10.070;2023-05-15T14:59:34;4.25;;;3.35;;
63738;SDS011;68816;45.558;10.070;2023-05-15T15:02:00;3.70;;;3.08;;
63738;SDS011;68816;45.558;10.070;2023-05-15T15:04:26;3.50;;;3.20;;
63738;SDS011;68816;45.558;10.070;2023-05-15T15:06:53;3.92;;;2.88;;
63738;SDS011;68816;45.558;10.070;2023-05-15T15:09:21;4.57;;;2.75;;
63738;SDS011;68816;45.558;10.070;2023-05-15T15:11:48;4.30;;;3.15;;
63738;SDS011;68816;45.558;10.070;2023-05-15T15:14:16;2.60;;;2.40;;
63738;SDS011;68816;45.558;10.070;2023-05-15T15:16:41;2.78;;;1.88;;
63738;SDS011;68816;45.558;10.070;2023-05-15T15:19:08;3.33;;;3.00;;
63738;SDS011;68816;45.558;10.070;2023-05-15T15:21:36;3.05;;;2.75;;
63738;SDS011;68816;45.558;10.070;2023-05-15T15:24:02;3.38;;;2.50;;
63738;SDS011;68816;45.558;10.070;2023-05-15T15:26:28;3.95;;;2.10;;
63738;SDS011;68816;45.558;10.070;2023-05-15T15:28:53;2.20;;;1.85;;
63738;SDS011;68816;45.558;10.070;2023-05-15T15:31:24;3.42;;;1.90;;
63738;SDS011;68816;45.558;10.070;2023-05-15T15:33:53;4.55;;;2.13;;
63738;SDS011;68816;45.558;10.070;2023-05-15T15:36:19;2.10;;;1.60;;